Main page
METAR-TAF:

METAR-TAF

Airports :

Samaná El Catey International Airport

Samaná, Dominican Republic

latitude: 19-16-12N, longitude: 69-44-15W, elevation: 4 m

Current weather observation

The report was made 2 hours and 41 minutes ago, at 00:00 UTC
Wind 12 kt from the East
Temperature 28°C
Humidity 84%
Pressure 1014 hPa
Visibility 10 km or more
Scattered clouds at a height of 2000 ft

METAR: MDCY 160000Z 09012KT 9999 SCT020 28/25 Q1014

Time: 22:41 (02:41 UTC)

Forecast

The report was made 16 hours and 41 minutes ago, at 10:00 UTC
Forecast valid from 15 at 12 UTC to 16 at 12 UTC
Wind kt from the North
Visibility 10 km or more
Few clouds at a height of 1800 ft
Scattered clouds at a height of 30000 ft
Becoming
from 15 at 18 UTC to 15 at 20 UTC
Wind 5 kt from the East

TAF: MDCY 151000Z 1512/1612 00000KT 9999 FEW018 SCT300 BECMG 1518/1520 09005KT

Weather observations and forecasts of more than 4000 airports (METAR and TAF reports).

The available stations are represented by yellow and red dots on the map.

Hover mouse over dot to see the name of the station.

Then click to see weather observations and forecasts.

To change the map : click on the green buttons with a black cross to zoom in, on the green button with a dash to zoom out, or on the green arrows for adjacent maps.


METAR-TAF: